createdAt,value
2023-07-31T00:02:10.235Z,100925.56
2023-07-31T00:04:37.313Z,100922.34
2023-07-31T00:07:05.651Z,100913.19
2023-07-31T00:09:32.872Z,100916.00
2023-07-31T00:12:00.187Z,100914.41
2023-07-31T00:14:27.403Z,100909.63
2023-07-31T00:16:54.566Z,100904.88
2023-07-31T00:19:21.639Z,100906.44
2023-07-31T00:21:48.783Z,100904.88
2023-07-31T00:24:15.785Z,100900.50
2023-07-31T00:26:42.867Z,100903.25
2023-07-31T00:29:10.145Z,100909.25
2023-07-31T00:31:38.059Z,100906.88
2023-07-31T00:34:05.203Z,100904.06
2023-07-31T00:36:35.215Z,100897.31
2023-07-31T00:39:02.433Z,100898.09
2023-07-31T00:41:29.662Z,100893.72
2023-07-31T00:43:56.780Z,100892.13
2023-07-31T00:46:24.008Z,100887.34
2023-07-31T00:48:51.078Z,100896.09
2023-07-31T00:51:18.987Z,100896.91
2023-07-31T00:53:46.653Z,100889.34
2023-07-31T00:56:13.997Z,100893.31
2023-07-31T00:58:42.049Z,100888.94
2023-07-31T01:01:09.358Z,100886.13
2023-07-31T01:03:36.459Z,100886.56
2023-07-31T01:06:21.728Z,100888.94
2023-07-31T01:09:05.940Z,100885.75
2023-07-31T01:11:39.691Z,100881.38
2023-07-31T01:14:07.146Z,100878.59
2023-07-31T01:16:34.351Z,100882.56
2023-07-31T01:19:01.455Z,100875.81
2023-07-31T01:21:52.272Z,100874.22
2023-07-31T01:24:43.234Z,100873.41
2023-07-31T01:27:24.769Z,100869.84
2023-07-31T01:29:58.937Z,100869.84
2023-07-31T01:32:29.592Z,100865.06
2023-07-31T01:35:00.674Z,100860.69
2023-07-31T01:37:31.362Z,100853.94
2023-07-31T01:39:58.511Z,100859.09
2023-07-31T01:42:26.175Z,100849.16
2023-07-31T01:44:53.408Z,100860.28
2023-07-31T01:47:20.658Z,100861.88
2023-07-31T01:49:47.852Z,100857.91
2023-07-31T01:52:14.965Z,100857.91
2023-07-31T01:54:42.850Z,100867.47
2023-07-31T01:57:09.888Z,100861.91
2023-07-31T01:59:37.127Z,100869.44
2023-07-31T02:02:04.836Z,100862.28
2023-07-31T02:04:31.978Z,100855.91
2023-07-31T02:06:59.129Z,100865.44
2023-07-31T02:09:26.208Z,100866.66
2023-07-31T02:11:53.370Z,100862.63
2023-07-31T02:14:20.426Z,100862.63
2023-07-31T02:16:47.743Z,100871.38
2023-07-31T02:19:14.897Z,100876.53
2023-07-31T02:21:42.830Z,100866.19
2023-07-31T02:24:10.100Z,100865.78
2023-07-31T02:26:37.833Z,100865.34
2023-07-31T02:29:05.244Z,100859.41
2023-07-31T02:31:32.392Z,100860.19
2023-07-31T02:33:59.559Z,100845.09
2023-07-31T02:36:26.859Z,100851.47
2023-07-31T02:38:53.883Z,100861.41
2023-07-31T02:41:21.084Z,100842.72
2023-07-31T02:43:48.276Z,100839.16
2023-07-31T02:46:15.600Z,100848.69
2023-07-31T02:48:42.929Z,100843.94
2023-07-31T02:51:10.040Z,100847.50
2023-07-31T02:53:37.194Z,100840.75
2023-07-31T02:56:04.513Z,100842.72
2023-07-31T02:58:31.645Z,100850.69
2023-07-31T03:01:00.322Z,100838.78
2023-07-31T03:03:27.738Z,100837.56
2023-07-31T03:05:55.095Z,100841.16
2023-07-31T03:08:22.420Z,100850.28
2023-07-31T03:10:50.470Z,100851.09
2023-07-31T03:13:17.578Z,100859.44
2023-07-31T03:15:44.904Z,100861.00
2023-07-31T03:18:12.208Z,100865.78
2023-07-31T03:20:43.826Z,100859.81
2023-07-31T03:23:11.345Z,100868.19
2023-07-31T03:25:38.804Z,100859.41
2023-07-31T03:28:05.991Z,100858.22
2023-07-31T03:30:33.341Z,100863.78
2023-07-31T03:33:00.479Z,100870.56
2023-07-31T03:35:27.781Z,100867.78
2023-07-31T03:37:55.734Z,100869.34
2023-07-31T03:40:23.846Z,100864.63
2023-07-31T03:42:51.091Z,100863.41
2023-07-31T03:45:18.152Z,100876.13
2023-07-31T03:47:46.540Z,100864.19
2023-07-31T03:50:13.854Z,100859.06
2023-07-31T03:52:42.219Z,100865.41
2023-07-31T03:55:09.558Z,100865.41
2023-07-31T03:57:36.735Z,100859.84
2023-07-31T04:00:04.884Z,100859.84
2023-07-31T04:02:39.348Z,100853.91
2023-07-31T04:05:06.800Z,100863.88
2023-07-31T04:07:34.051Z,100854.72
2023-07-31T04:10:01.511Z,100860.66
2023-07-31T04:12:28.680Z,100849.94
2023-07-31T04:14:55.799Z,100858.72
2023-07-31T04:17:23.245Z,100853.13
2023-07-31T04:19:50.305Z,100858.28
2023-07-31T04:22:17.356Z,100861.09
2023-07-31T04:24:44.519Z,100858.31
2023-07-31T04:27:11.743Z,100859.50
2023-07-31T04:29:41.122Z,100861.88
2023-07-31T04:32:08.396Z,100856.72
2023-07-31T04:34:35.562Z,100868.63
2023-07-31T04:37:02.624Z,100869.44
2023-07-31T04:39:29.763Z,100867.41
2023-07-31T04:41:56.793Z,100869.81
2023-07-31T04:44:23.980Z,100864.66
2023-07-31T04:46:51.088Z,100861.47
2023-07-31T04:49:18.372Z,100864.22
2023-07-31T04:51:45.599Z,100856.25
2023-07-31T04:54:13.914Z,100855.84
2023-07-31T04:56:41.246Z,100857.81
2023-07-31T04:59:08.763Z,100857.78
2023-07-31T05:01:35.853Z,100867.69
2023-07-31T05:04:03.571Z,100862.91
2023-07-31T05:06:30.673Z,100862.50
2023-07-31T05:08:57.903Z,100861.66
2023-07-31T05:11:25.126Z,100853.59
2023-07-31T05:13:52.225Z,100849.41
2023-07-31T05:16:19.525Z,100855.84
2023-07-31T05:18:46.652Z,100858.19
2023-07-31T05:21:13.818Z,100860.22
2023-07-31T05:23:40.854Z,100872.09
2023-07-31T05:26:09.272Z,100860.19
2023-07-31T05:28:37.488Z,100857.50
2023-07-31T05:31:05.761Z,100861.13
2023-07-31T05:33:32.850Z,100849.09
2023-07-31T05:35:59.980Z,100851.97
2023-07-31T05:38:27.412Z,100858.38
2023-07-31T05:40:54.568Z,100863.84
2023-07-31T05:43:21.626Z,100859.91
2023-07-31T05:45:48.918Z,100862.50
2023-07-31T05:48:16.073Z,100865.13
2023-07-31T05:50:44.885Z,100858.00
2023-07-31T05:53:12.169Z,100875.09
2023-07-31T05:55:39.348Z,100870.88
2023-07-31T05:58:06.521Z,100872.09
2023-07-31T06:00:33.818Z,100870.69
2023-07-31T06:03:01.033Z,100872.97
2023-07-31T06:05:29.986Z,100871.41
2023-07-31T06:07:58.132Z,100876.03
2023-07-31T06:10:25.294Z,100871.13
2023-07-31T06:12:52.570Z,100865.91
2023-07-31T06:15:20.656Z,100874.91
2023-07-31T06:17:47.952Z,100863.38
2023-07-31T06:20:15.137Z,100862.66
2023-07-31T06:22:42.348Z,100868.88
2023-07-31T06:25:10.906Z,100869.13
2023-07-31T06:27:39.762Z,100869.47
2023-07-31T06:30:08.122Z,100863.81
2023-07-31T06:32:35.539Z,100863.13
2023-07-31T06:35:02.658Z,100856.50
2023-07-31T06:37:29.894Z,100857.50
2023-07-31T06:39:56.985Z,100849.28
2023-07-31T06:42:24.138Z,100848.97
2023-07-31T06:44:51.465Z,100857.16
2023-07-31T06:47:18.544Z,100854.88
2023-07-31T06:49:45.777Z,100848.34
2023-07-31T06:52:12.934Z,100853.09
2023-07-31T06:54:40.106Z,100849.69
2023-07-31T06:57:07.465Z,100849.13
2023-07-31T06:59:34.620Z,100844.88
2023-07-31T07:02:02.307Z,100839.50
2023-07-31T07:04:31.394Z,100844.41
2023-07-31T07:06:58.589Z,100841.06
2023-07-31T07:09:25.700Z,100842.94
2023-07-31T07:11:52.785Z,100845.34
2023-07-31T07:18:00.802Z,100838.41
2023-07-31T07:20:28.189Z,100842.34
2023-07-31T07:22:55.222Z,100840.94
2023-07-31T07:25:22.785Z,100848.88
2023-07-31T07:27:49.843Z,100850.91
2023-07-31T07:30:17.156Z,100854.38
2023-07-31T07:32:44.878Z,100855.00
2023-07-31T07:35:12.455Z,100852.84
2023-07-31T07:37:39.533Z,100850.34
2023-07-31T07:40:07.509Z,100844.81
2023-07-31T07:42:34.491Z,100846.94
2023-07-31T07:45:01.629Z,100847.63
2023-07-31T07:47:29.480Z,100857.25
2023-07-31T07:49:56.754Z,100859.06
2023-07-31T07:52:23.885Z,100856.84
2023-07-31T07:54:51.251Z,100865.72
2023-07-31T07:57:18.479Z,100854.81
2023-07-31T07:59:45.633Z,100852.63
2023-07-31T08:02:12.803Z,100848.25
2023-07-31T08:04:39.965Z,100842.53
2023-07-31T08:07:07.225Z,100842.41
2023-07-31T08:09:34.318Z,100849.91
2023-07-31T08:12:04.580Z,100845.75
2023-07-31T08:14:33.465Z,100842.63
2023-07-31T08:17:01.379Z,100839.69
2023-07-31T08:19:28.714Z,100842.66
2023-07-31T08:21:58.173Z,100838.25
2023-07-31T08:24:25.783Z,100831.69
2023-07-31T08:26:53.006Z,100841.69
2023-07-31T08:29:20.280Z,100842.69
2023-07-31T08:31:47.447Z,100847.88
2023-07-31T08:34:14.564Z,100837.00
2023-07-31T08:36:41.928Z,100834.91
2023-07-31T08:39:09.295Z,100830.06
2023-07-31T08:41:42.921Z,100833.13
2023-07-31T08:44:13.119Z,100846.94
2023-07-31T08:46:41.587Z,100842.88
2023-07-31T08:49:10.669Z,100839.03
2023-07-31T08:51:38.261Z,100823.94
2023-07-31T08:54:05.497Z,100834.16
2023-07-31T08:56:33.830Z,100840.25
2023-07-31T08:59:05.870Z,100830.75
2023-07-31T09:01:39.763Z,100838.56
2023-07-31T09:04:09.285Z,100835.38
2023-07-31T09:06:37.079Z,100836.78
2023-07-31T09:09:04.547Z,100827.34
2023-07-31T09:11:31.597Z,100825.50
2023-07-31T09:13:59.571Z,100835.97
2023-07-31T09:16:33.429Z,100830.81
2023-07-31T09:19:03.174Z,100821.53
2023-07-31T09:21:31.131Z,100818.88
2023-07-31T09:23:58.815Z,100822.41
2023-07-31T09:26:38.464Z,100816.16
2023-07-31T09:29:09.659Z,100817.47
2023-07-31T09:31:45.002Z,100813.91
2023-07-31T09:34:13.041Z,100807.47
2023-07-31T09:36:51.634Z,100804.13
2023-07-31T09:39:21.203Z,100805.56
2023-07-31T09:41:54.933Z,100800.97
2023-07-31T09:44:22.713Z,100795.38
2023-07-31T09:46:50.975Z,100788.72
2023-07-31T09:49:18.239Z,100790.50
2023-07-31T09:51:45.322Z,100790.44
2023-07-31T09:54:13.909Z,100789.88
2023-07-31T09:56:47.232Z,100787.94
2023-07-31T09:59:22.028Z,100788.56
2023-07-31T10:01:52.039Z,100782.53
2023-07-31T10:04:22.225Z,100782.16
2023-07-31T10:06:52.666Z,100779.47
2023-07-31T10:09:22.819Z,100776.06
2023-07-31T10:11:57.487Z,100767.47
2023-07-31T10:14:25.664Z,100774.28
2023-07-31T10:16:54.154Z,100773.97
2023-07-31T10:19:22.320Z,100779.69
2023-07-31T10:21:50.557Z,100771.81
2023-07-31T10:24:18.286Z,100772.38
2023-07-31T10:26:48.384Z,100764.06
2023-07-31T10:29:18.954Z,100765.38
2023-07-31T10:31:47.999Z,100770.84
2023-07-31T10:34:16.181Z,100766.31
2023-07-31T10:36:43.586Z,100764.38
2023-07-31T10:39:41.994Z,100763.41
2023-07-31T10:42:15.560Z,100762.53
2023-07-31T10:44:48.177Z,100759.22
2023-07-31T10:47:19.196Z,100759.03
2023-07-31T10:49:48.005Z,100764.00
2023-07-31T10:52:20.406Z,100755.75
2023-07-31T10:54:47.769Z,100759.72
2023-07-31T10:57:22.678Z,100758.53
2023-07-31T10:59:51.931Z,100751.00
2023-07-31T11:02:28.058Z,100743.09
2023-07-31T11:05:23.495Z,100738.31
2023-07-31T11:07:51.002Z,100738.38
2023-07-31T11:10:19.449Z,100741.09
2023-07-31T11:12:48.047Z,100739.53
2023-07-31T11:15:15.387Z,100736.59
2023-07-31T11:17:42.957Z,100721.28
2023-07-31T11:20:10.697Z,100730.19
2023-07-31T11:22:37.892Z,100729.97
2023-07-31T11:25:05.554Z,100720.31
2023-07-31T11:27:39.846Z,100723.78
2023-07-31T11:30:08.563Z,100726.06
2023-07-31T11:32:38.274Z,100731.50
2023-07-31T11:35:07.217Z,100718.41
2023-07-31T11:37:44.250Z,100732.00
2023-07-31T11:40:12.245Z,100729.38
2023-07-31T11:42:39.715Z,100716.66
2023-07-31T11:45:08.704Z,100709.72
2023-07-31T11:47:37.920Z,100696.97
2023-07-31T11:50:07.453Z,100714.44
2023-07-31T11:52:44.601Z,100706.97
2023-07-31T11:55:12.352Z,100709.72
2023-07-31T11:57:44.049Z,100708.59
2023-07-31T12:00:14.476Z,100696.09
2023-07-31T12:02:42.566Z,100690.56
2023-07-31T12:07:59.492Z,100692.13
2023-07-31T12:10:34.002Z,100688.41
2023-07-31T12:13:22.109Z,100681.31
2023-07-31T12:15:50.030Z,100680.75
2023-07-31T12:18:21.251Z,100685.66
2023-07-31T12:20:50.730Z,100672.59
2023-07-31T12:23:32.230Z,100671.81
2023-07-31T12:26:13.115Z,100674.50
2023-07-31T12:28:48.589Z,100670.34
2023-07-31T12:31:24.081Z,100673.34
2023-07-31T12:33:54.328Z,100670.50
2023-07-31T12:36:24.735Z,100674.88
2023-07-31T12:38:54.839Z,100666.94
2023-07-31T12:41:22.249Z,100672.03
2023-07-31T12:43:49.321Z,100671.38
2023-07-31T12:46:17.425Z,100675.94
2023-07-31T12:48:44.594Z,100680.13
2023-07-31T12:51:11.814Z,100692.69
2023-07-31T12:53:39.016Z,100692.81
2023-07-31T12:56:06.312Z,100688.34
2023-07-31T12:58:33.519Z,100692.69
2023-07-31T13:01:00.891Z,100682.75
2023-07-31T13:03:28.254Z,100683.09
2023-07-31T13:05:56.061Z,100689.06
2023-07-31T13:08:23.199Z,100689.44
2023-07-31T13:10:50.435Z,100691.78
2023-07-31T13:13:17.668Z,100703.00
2023-07-31T13:15:46.760Z,100710.69
2023-07-31T13:18:14.020Z,100714.28
2023-07-31T13:20:41.140Z,100715.31
2023-07-31T13:23:08.366Z,100706.31
2023-07-31T13:25:35.705Z,100697.31
2023-07-31T13:28:03.912Z,100695.28
2023-07-31T13:30:31.437Z,100698.47
2023-07-31T13:32:58.644Z,100704.13
2023-07-31T13:35:25.931Z,100702.16
2023-07-31T13:37:53.252Z,100702.56
2023-07-31T13:40:20.349Z,100696.16
2023-07-31T13:42:49.060Z,100713.53
2023-07-31T13:45:16.345Z,100709.09
2023-07-31T13:47:43.779Z,100704.13
2023-07-31T13:50:11.096Z,100694.13
2023-07-31T13:52:38.155Z,100692.72
2023-07-31T13:55:05.773Z,100697.72
2023-07-31T13:57:32.972Z,100687.72
2023-07-31T14:00:00.102Z,100688.50
2023-07-31T14:02:27.447Z,100682.25
2023-07-31T14:04:54.585Z,100678.44
2023-07-31T14:07:21.942Z,100688.53
2023-07-31T14:09:49.029Z,100685.53
2023-07-31T14:12:31.797Z,100683.03
2023-07-31T14:15:04.342Z,100677.97
2023-07-31T14:17:31.688Z,100680.00
2023-07-31T14:19:59.426Z,100684.63
2023-07-31T14:22:34.774Z,100676.56
2023-07-31T14:25:02.833Z,100688.78
2023-07-31T14:27:30.227Z,100676.22
2023-07-31T14:29:57.609Z,100676.03
2023-07-31T14:32:32.874Z,100677.72
2023-07-31T14:35:00.534Z,100680.63
2023-07-31T14:37:28.848Z,100672.53
2023-07-31T14:39:57.409Z,100655.88
2023-07-31T14:42:24.737Z,100666.91
2023-07-31T14:44:51.863Z,100668.94
2023-07-31T14:47:19.176Z,100670.88
2023-07-31T14:49:46.206Z,100669.28
2023-07-31T14:52:13.477Z,100663.78
2023-07-31T14:54:40.538Z,100648.22
2023-07-31T14:57:07.836Z,100655.97
2023-07-31T14:59:35.077Z,100661.72
2023-07-31T15:02:02.710Z,100643.34
2023-07-31T15:04:30.271Z,100644.34
2023-07-31T15:06:57.342Z,100640.97
2023-07-31T15:09:24.588Z,100636.91
2023-07-31T15:11:51.798Z,100635.34
2023-07-31T15:14:19.170Z,100634.03
2023-07-31T15:16:49.045Z,100629.91
2023-07-31T15:19:17.070Z,100622.56
2023-07-31T15:21:44.466Z,100622.47
2023-07-31T15:24:11.622Z,100620.44
2023-07-31T15:26:39.289Z,100622.91
2023-07-31T15:29:12.631Z,100630.09
2023-07-31T15:31:40.602Z,100635.72
2023-07-31T15:34:08.125Z,100623.16
2023-07-31T15:36:35.596Z,100616.94
2023-07-31T15:39:02.968Z,100621.34
2023-07-31T15:41:30.941Z,100618.06
2023-07-31T15:43:58.144Z,100621.47
2023-07-31T15:46:25.362Z,100628.88
2023-07-31T15:48:54.704Z,100626.06
2023-07-31T15:51:22.231Z,100623.44
2023-07-31T15:53:49.255Z,100625.22
2023-07-31T15:56:17.194Z,100626.09
2023-07-31T15:58:44.314Z,100635.53
2023-07-31T16:01:11.704Z,100629.00
2023-07-31T16:03:38.908Z,100631.13
2023-07-31T16:06:06.406Z,100620.19
2023-07-31T16:08:33.852Z,100627.97
2023-07-31T16:11:02.717Z,100626.75
2023-07-31T16:13:29.810Z,100635.34
2023-07-31T16:15:57.335Z,100638.63
2023-07-31T16:18:24.624Z,100630.31
2023-07-31T16:20:52.422Z,100623.84
2023-07-31T16:23:19.468Z,100627.38
2023-07-31T16:25:46.642Z,100626.78
2023-07-31T16:28:13.768Z,100626.13
2023-07-31T16:30:41.093Z,100630.63
2023-07-31T16:33:08.472Z,100632.22
2023-07-31T16:35:35.673Z,100636.06
2023-07-31T16:38:02.763Z,100633.88
2023-07-31T16:40:30.702Z,100636.00
2023-07-31T16:42:57.706Z,100630.00
2023-07-31T16:45:24.828Z,100635.91
2023-07-31T16:47:52.422Z,100635.53
2023-07-31T16:50:21.050Z,100640.91
2023-07-31T16:52:49.178Z,100634.22
2023-07-31T16:55:16.213Z,100629.44
2023-07-31T16:57:43.363Z,100624.53
2023-07-31T17:00:11.214Z,100627.00
2023-07-31T17:02:38.359Z,100634.25
2023-07-31T17:05:07.423Z,100634.84
2023-07-31T17:07:34.973Z,100630.63
2023-07-31T17:10:03.151Z,100632.00
2023-07-31T17:12:30.371Z,100629.41
2023-07-31T17:14:57.652Z,100627.94
2023-07-31T17:17:26.014Z,100631.56
2023-07-31T17:19:53.292Z,100626.31
2023-07-31T17:22:21.015Z,100630.09
2023-07-31T17:24:49.012Z,100625.72
2023-07-31T17:27:16.126Z,100621.16
2023-07-31T17:29:43.404Z,100627.75
2023-07-31T17:32:10.477Z,100620.78
2023-07-31T17:34:38.252Z,100620.22
2023-07-31T17:37:05.517Z,100625.47
2023-07-31T17:39:32.575Z,100628.00
2023-07-31T17:41:59.722Z,100620.91
2023-07-31T17:44:26.866Z,100631.75
2023-07-31T17:46:54.458Z,100623.47
2023-07-31T17:49:21.619Z,100639.06
2023-07-31T17:51:48.687Z,100633.16
2023-07-31T17:54:15.738Z,100618.31
2023-07-31T17:56:42.932Z,100622.38
2023-07-31T17:59:11.787Z,100624.78
2023-07-31T18:01:39.401Z,100636.75
2023-07-31T18:04:07.278Z,100636.34
2023-07-31T18:06:35.983Z,100637.56
2023-07-31T18:09:04.388Z,100638.75
2023-07-31T18:11:32.935Z,100641.28
2023-07-31T18:14:00.795Z,100642.03
2023-07-31T18:16:27.902Z,100643.59
2023-07-31T18:18:55.118Z,100641.56
2023-07-31T18:21:22.432Z,100635.66
2023-07-31T18:23:49.472Z,100640.81
2023-07-31T18:26:16.716Z,100643.25
2023-07-31T18:28:43.815Z,100641.28
2023-07-31T18:31:11.248Z,100656.09
2023-07-31T18:33:39.473Z,100652.84
2023-07-31T18:36:06.986Z,100651.63
2023-07-31T18:38:34.360Z,100661.53
2023-07-31T18:41:06.077Z,100664.69
2023-07-31T18:43:33.516Z,100660.94
2023-07-31T18:46:00.672Z,100668.84
2023-07-31T18:48:28.076Z,100677.25
2023-07-31T18:50:55.265Z,100688.41
2023-07-31T18:53:22.582Z,100686.50
2023-07-31T18:55:50.140Z,100692.94
2023-07-31T18:58:18.584Z,100683.81
2023-07-31T19:00:45.723Z,100684.22
2023-07-31T19:03:13.280Z,100694.63
2023-07-31T19:05:40.823Z,100693.00
2023-07-31T19:08:08.253Z,100699.03
2023-07-31T19:10:36.506Z,100709.41
2023-07-31T19:13:06.522Z,100718.16
2023-07-31T19:15:35.073Z,100715.00
2023-07-31T19:18:03.180Z,100724.63
2023-07-31T19:20:31.875Z,100727.84
2023-07-31T19:22:59.856Z,100725.44
2023-07-31T19:25:27.190Z,100734.28
2023-07-31T19:27:57.659Z,100731.91
2023-07-31T19:30:25.990Z,100733.56
2023-07-31T19:32:54.066Z,100729.63
2023-07-31T19:35:23.424Z,100730.00
2023-07-31T19:37:50.834Z,100733.22
2023-07-31T19:40:20.505Z,100729.25
2023-07-31T19:42:47.743Z,100738.84
2023-07-31T19:45:14.867Z,100734.06
2023-07-31T19:47:42.109Z,100735.28
2023-07-31T19:50:09.453Z,100739.72
2023-07-31T19:52:36.531Z,100737.28
2023-07-31T19:55:03.806Z,100732.16
2023-07-31T19:57:30.877Z,100733.34
2023-07-31T19:59:57.920Z,100738.09
2023-07-31T20:02:26.995Z,100736.88
2023-07-31T20:04:54.328Z,100750.03
2023-07-31T20:07:21.527Z,100738.84
2023-07-31T20:09:49.260Z,100734.91
2023-07-31T20:12:16.256Z,100733.66
2023-07-31T20:14:43.264Z,100732.44
2023-07-31T20:17:10.409Z,100729.66
2023-07-31T20:19:37.716Z,100734.06
2023-07-31T20:22:05.171Z,100739.63
2023-07-31T20:24:32.197Z,100748.88
2023-07-31T20:26:59.301Z,100746.13
2023-07-31T20:29:26.284Z,100755.34
2023-07-31T20:31:53.476Z,100748.97
2023-07-31T20:34:20.697Z,100748.19
2023-07-31T20:36:47.958Z,100741.81
2023-07-31T20:39:14.912Z,100738.22
2023-07-31T20:41:43.680Z,100735.00
2023-07-31T20:44:10.658Z,100739.00
2023-07-31T20:46:37.859Z,100744.63
2023-07-31T20:49:05.304Z,100739.03
2023-07-31T20:51:33.664Z,100733.88
2023-07-31T20:54:00.842Z,100733.06
2023-07-31T20:56:27.848Z,100745.81
2023-07-31T20:58:54.942Z,100742.25
2023-07-31T21:01:22.174Z,100735.03
2023-07-31T21:03:49.386Z,100738.22
2023-07-31T21:06:18.093Z,100735.81
2023-07-31T21:08:47.740Z,100738.94
2023-07-31T21:11:14.936Z,100734.91
2023-07-31T21:13:43.766Z,100736.91
2023-07-31T21:16:10.774Z,100743.69
2023-07-31T21:18:37.852Z,100742.09
2023-07-31T21:21:04.942Z,100744.47
2023-07-31T21:23:32.982Z,100744.88
2023-07-31T21:26:00.167Z,100729.72
2023-07-31T21:28:27.395Z,100740.50
2023-07-31T21:30:54.719Z,100736.50
2023-07-31T21:33:21.902Z,100747.69
2023-07-31T21:35:48.959Z,100754.84
2023-07-31T21:38:17.146Z,100752.91
2023-07-31T21:40:44.200Z,100751.78
2023-07-31T21:43:11.225Z,100743.50
2023-07-31T21:45:38.400Z,100744.75
2023-07-31T21:48:05.699Z,100739.56
2023-07-31T21:50:33.088Z,100746.72
2023-07-31T21:53:00.218Z,100749.91
2023-07-31T21:55:29.598Z,100739.13
2023-07-31T21:57:56.879Z,100748.28
2023-07-31T22:00:23.861Z,100744.31
2023-07-31T22:02:51.082Z,100744.75
2023-07-31T22:05:18.186Z,100751.50
2023-07-31T22:07:45.431Z,100750.31
2023-07-31T22:10:12.506Z,100749.94
2023-07-31T22:12:39.718Z,100746.78
2023-07-31T22:15:07.252Z,100747.63
2023-07-31T22:17:34.595Z,100738.47
2023-07-31T22:20:01.717Z,100733.72
2023-07-31T22:22:28.809Z,100731.31
2023-07-31T22:24:55.761Z,100724.59
2023-07-31T22:27:22.931Z,100722.59
2023-07-31T22:29:49.926Z,100719.03
2023-07-31T22:32:17.105Z,100715.44
2023-07-31T22:34:44.105Z,100712.28
2023-07-31T22:37:11.187Z,100695.09
2023-07-31T22:39:38.292Z,100703.91
2023-07-31T22:42:05.453Z,100693.56
2023-07-31T22:44:32.660Z,100693.13
2023-07-31T22:46:59.687Z,100699.53
2023-07-31T22:49:26.710Z,100688.78
2023-07-31T22:51:53.702Z,100684.41
2023-07-31T22:54:21.001Z,100684.78
2023-07-31T22:56:48.020Z,100691.94
2023-07-31T22:59:15.274Z,100697.50
2023-07-31T23:01:42.366Z,100703.09
2023-07-31T23:04:09.474Z,100695.13
2023-07-31T23:06:36.538Z,100692.81
2023-07-31T23:09:03.934Z,100688.81
2023-07-31T23:11:31.205Z,100690.44
2023-07-31T23:13:58.233Z,100682.09
2023-07-31T23:16:25.384Z,100677.31
2023-07-31T23:18:52.538Z,100682.09
2023-07-31T23:21:19.538Z,100676.09
2023-07-31T23:23:46.634Z,100670.88
2023-07-31T23:26:13.655Z,100672.91
2023-07-31T23:28:40.899Z,100673.72
2023-07-31T23:31:08.178Z,100671.34
2023-07-31T23:33:35.411Z,100666.19
2023-07-31T23:36:12.736Z,100665.41
2023-07-31T23:38:40.928Z,100667.81
2023-07-31T23:41:08.198Z,100662.66
2023-07-31T23:43:35.281Z,100656.63
2023-07-31T23:46:02.489Z,100656.22
2023-07-31T23:48:29.574Z,100657.03
2023-07-31T23:50:57.176Z,100645.47
2023-07-31T23:53:24.870Z,100643.09
2023-07-31T23:55:52.066Z,100638.34
2023-07-31T23:58:19.321Z,100646.72
